sensor_id;sensor_type;location;lat;lon;timestamp;pressure;altitude;pressure_sealevel;temperature;humidity
12349;BME280;5974;42.710;27.258;2023-01-27T00:01:16;99673.34;;;7.97;100.00
12349;BME280;5974;42.710;27.258;2023-01-27T00:03:43;99642.72;;;8.27;100.00
12349;BME280;5974;42.710;27.258;2023-01-27T00:06:11;99628.41;;;8.15;100.00
12349;BME280;5974;42.710;27.258;2023-01-27T00:08:38;99621.41;;;8.17;100.00
12349;BME280;5974;42.710;27.258;2023-01-27T00:11:05;99616.00;;;8.22;100.00
12349;BME280;5974;42.710;27.258;2023-01-27T00:13:49;99612.78;;;8.15;100.00
12349;BME280;5974;42.710;27.258;2023-01-27T00:16:16;99645.78;;;7.93;100.00
12349;BME280;5974;42.710;27.258;2023-01-27T00:18:43;99632.44;;;8.24;100.00
12349;BME280;5974;42.710;27.258;2023-01-27T00:21:11;99645.13;;;8.33;100.00
12349;BME280;5974;42.710;27.258;2023-01-27T00:23:55;99622.84;;;8.25;100.00
12349;BME280;5974;42.710;27.258;2023-01-27T00:26:39;99634.91;;;8.05;100.00
12349;BME280;5974;42.710;27.258;2023-01-27T00:29:06;99631.94;;;8.14;100.00
12349;BME280;5974;42.710;27.258;2023-01-27T00:31:33;99633.13;;;8.29;100.00
12349;BME280;5974;42.710;27.258;2023-01-27T00:34:17;99646.44;;;7.98;100.00
12349;BME280;5974;42.710;27.258;2023-01-27T00:36:45;99650.81;;;8.19;100.00
12349;BME280;5974;42.710;27.258;2023-01-27T00:39:13;99667.03;;;7.81;100.00
12349;BME280;5974;42.710;27.258;2023-01-27T00:41:40;99671.16;;;8.10;100.00
12349;BME280;5974;42.710;27.258;2023-01-27T00:44:07;99683.38;;;8.31;100.00
12349;BME280;5974;42.710;27.258;2023-01-27T00:46:38;99677.69;;;8.43;100.00
12349;BME280;5974;42.710;27.258;2023-01-27T00:49:05;99687.56;;;8.35;100.00
12349;BME280;5974;42.710;27.258;2023-01-27T00:51:32;99704.19;;;8.33;100.00
12349;BME280;5974;42.710;27.258;2023-01-27T00:54:02;99683.03;;;8.40;100.00
12349;BME280;5974;42.710;27.258;2023-01-27T00:56:30;99676.06;;;8.41;100.00
12349;BME280;5974;42.710;27.258;2023-01-27T00:58:56;99666.69;;;8.58;100.00
12349;BME280;5974;42.710;27.258;2023-01-27T01:01:23;99663.69;;;8.24;100.00
12349;BME280;5974;42.710;27.258;2023-01-27T01:03:50;99662.34;;;8.14;100.00
12349;BME280;5974;42.710;27.258;2023-01-27T01:06:18;99665.59;;;8.86;100.00
12349;BME280;5974;42.710;27.258;2023-01-27T01:08:45;99634.09;;;8.90;100.00
12349;BME280;5974;42.710;27.258;2023-01-27T01:11:15;99606.63;;;8.61;100.00
12349;BME280;5974;42.710;27.258;2023-01-27T01:13:43;99601.75;;;8.54;100.00
12349;BME280;5974;42.710;27.258;2023-01-27T01:16:13;99606.72;;;8.38;100.00
12349;BME280;5974;42.710;27.258;2023-01-27T01:18:40;99609.56;;;8.54;100.00
12349;BME280;5974;42.710;27.258;2023-01-27T01:21:08;99599.38;;;8.26;100.00
12349;BME280;5974;42.710;27.258;2023-01-27T01:23:42;99582.88;;;8.26;100.00
12349;BME280;5974;42.710;27.258;2023-01-27T01:26:11;99585.56;;;8.24;100.00
12349;BME280;5974;42.710;27.258;2023-01-27T01:28:39;99581.19;;;8.25;100.00
12349;BME280;5974;42.710;27.258;2023-01-27T01:31:09;99580.47;;;8.21;100.00
12349;BME280;5974;42.710;27.258;2023-01-27T01:33:36;99553.59;;;8.21;100.00
12349;BME280;5974;42.710;27.258;2023-01-27T01:36:05;99558.34;;;8.09;100.00
12349;BME280;5974;42.710;27.258;2023-01-27T01:38:31;99555.03;;;8.06;100.00
12349;BME280;5974;42.710;27.258;2023-01-27T01:40:58;99556.22;;;7.97;100.00
12349;BME280;5974;42.710;27.258;2023-01-27T01:43:25;99549.13;;;8.02;100.00
12349;BME280;5974;42.710;27.258;2023-01-27T01:45:54;99540.47;;;8.02;100.00
12349;BME280;5974;42.710;27.258;2023-01-27T01:48:30;99533.63;;;7.99;100.00
12349;BME280;5974;42.710;27.258;2023-01-27T01:51:01;99547.41;;;8.01;100.00
12349;BME280;5974;42.710;27.258;2023-01-27T01:53:33;99550.00;;;8.01;100.00
12349;BME280;5974;42.710;27.258;2023-01-27T01:56:06;99521.25;;;8.04;100.00
12349;BME280;5974;42.710;27.258;2023-01-27T01:58:34;99546.75;;;7.96;100.00
12349;BME280;5974;42.710;27.258;2023-01-27T02:01:04;99521.09;;;8.09;100.00
12349;BME280;5974;42.710;27.258;2023-01-27T02:03:32;99513.19;;;8.10;100.00
12349;BME280;5974;42.710;27.258;2023-01-27T02:06:00;99486.66;;;8.02;100.00
12349;BME280;5974;42.710;27.258;2023-01-27T02:08:29;99476.94;;;8.06;100.00
12349;BME280;5974;42.710;27.258;2023-01-27T02:10:57;99488.28;;;8.05;100.00
12349;BME280;5974;42.710;27.258;2023-01-27T02:13:24;99496.00;;;8.06;100.00
12349;BME280;5974;42.710;27.258;2023-01-27T02:15:52;99493.88;;;8.16;100.00
12349;BME280;5974;42.710;27.258;2023-01-27T02:18:21;99493.28;;;8.09;100.00
12349;BME280;5974;42.710;27.258;2023-01-27T02:20:49;99497.72;;;8.07;100.00
12349;BME280;5974;42.710;27.258;2023-01-27T02:23:26;99493.75;;;8.19;100.00
12349;BME280;5974;42.710;27.258;2023-01-27T02:26:01;99484.91;;;8.23;100.00
12349;BME280;5974;42.710;27.258;2023-01-27T02:28:31;99488.03;;;8.33;100.00
12349;BME280;5974;42.710;27.258;2023-01-27T02:30:58;99493.16;;;8.34;100.00
12349;BME280;5974;42.710;27.258;2023-01-27T02:33:25;99493.75;;;8.41;100.00
12349;BME280;5974;42.710;27.258;2023-01-27T02:35:58;99490.88;;;8.47;100.00
12349;BME280;5974;42.710;27.258;2023-01-27T02:38:29;99469.88;;;8.51;100.00
12349;BME280;5974;42.710;27.258;2023-01-27T02:41:00;99477.22;;;8.42;100.00
12349;BME280;5974;42.710;27.258;2023-01-27T02:43:31;99499.25;;;8.55;100.00
12349;BME280;5974;42.710;27.258;2023-01-27T02:45:58;99490.75;;;8.50;100.00
12349;BME280;5974;42.710;27.258;2023-01-27T02:48:25;99484.16;;;8.61;100.00
12349;BME280;5974;42.710;27.258;2023-01-27T02:50:51;99464.69;;;8.50;100.00
12349;BME280;5974;42.710;27.258;2023-01-27T02:53:18;99467.19;;;8.53;100.00
12349;BME280;5974;42.710;27.258;2023-01-27T02:55:45;99469.16;;;8.48;100.00
12349;BME280;5974;42.710;27.258;2023-01-27T02:58:13;99454.41;;;8.47;100.00
12349;BME280;5974;42.710;27.258;2023-01-27T03:00:41;99468.59;;;8.80;100.00
12349;BME280;5974;42.710;27.258;2023-01-27T03:03:08;99472.00;;;8.62;100.00
12349;BME280;5974;42.710;27.258;2023-01-27T03:05:35;99478.13;;;8.41;100.00
12349;BME280;5974;42.710;27.258;2023-01-27T03:08:02;99474.78;;;8.37;100.00
12349;BME280;5974;42.710;27.258;2023-01-27T03:10:28;99464.94;;;8.24;100.00
12349;BME280;5974;42.710;27.258;2023-01-27T03:12:55;99470.91;;;8.26;100.00
12349;BME280;5974;42.710;27.258;2023-01-27T03:15:25;99466.59;;;8.25;100.00
12349;BME280;5974;42.710;27.258;2023-01-27T03:18:10;99465.66;;;8.27;100.00
12349;BME280;5974;42.710;27.258;2023-01-27T03:20:43;99464.81;;;8.27;100.00
12349;BME280;5974;42.710;27.258;2023-01-27T03:23:11;99472.75;;;8.24;100.00
12349;BME280;5974;42.710;27.258;2023-01-27T03:25:42;99477.03;;;8.25;100.00
12349;BME280;5974;42.710;27.258;2023-01-27T03:28:09;99476.06;;;8.27;100.00
12349;BME280;5974;42.710;27.258;2023-01-27T03:30:38;99465.47;;;8.32;100.00
12349;BME280;5974;42.710;27.258;2023-01-27T03:33:05;99468.72;;;8.37;100.00
12349;BME280;5974;42.710;27.258;2023-01-27T03:35:33;99468.03;;;8.33;100.00
12349;BME280;5974;42.710;27.258;2023-01-27T03:38:05;99458.25;;;8.38;100.00
12349;BME280;5974;42.710;27.258;2023-01-27T03:40:49;99452.28;;;8.36;100.00
12349;BME280;5974;42.710;27.258;2023-01-27T03:43:34;99459.16;;;8.37;100.00
12349;BME280;5974;42.710;27.258;2023-01-27T03:46:20;99446.00;;;8.40;100.00
12349;BME280;5974;42.710;27.258;2023-01-27T03:48:48;99454.75;;;8.39;100.00
12349;BME280;5974;42.710;27.258;2023-01-27T03:51:17;99457.41;;;8.38;100.00
12349;BME280;5974;42.710;27.258;2023-01-27T03:53:44;99452.75;;;8.46;100.00
12349;BME280;5974;42.710;27.258;2023-01-27T03:56:12;99455.53;;;8.41;100.00
12349;BME280;5974;42.710;27.258;2023-01-27T03:58:39;99468.28;;;8.47;100.00
12349;BME280;5974;42.710;27.258;2023-01-27T04:01:12;99450.19;;;8.44;100.00
12349;BME280;5974;42.710;27.258;2023-01-27T04:03:41;99453.78;;;8.42;100.00
12349;BME280;5974;42.710;27.258;2023-01-27T04:06:26;99455.22;;;8.49;100.00
12349;BME280;5974;42.710;27.258;2023-01-27T04:09:12;99449.75;;;8.55;100.00
12349;BME280;5974;42.710;27.258;2023-01-27T04:11:39;99433.44;;;8.50;100.00
12349;BME280;5974;42.710;27.258;2023-01-27T04:14:24;99444.53;;;8.55;100.00
12349;BME280;5974;42.710;27.258;2023-01-27T04:16:51;99404.56;;;8.36;100.00
12349;BME280;5974;42.710;27.258;2023-01-27T04:19:20;99410.28;;;8.44;100.00
12349;BME280;5974;42.710;27.258;2023-01-27T04:21:47;99409.94;;;8.51;100.00
12349;BME280;5974;42.710;27.258;2023-01-27T04:24:15;99409.22;;;8.48;100.00
12349;BME280;5974;42.710;27.258;2023-01-27T04:26:53;99400.44;;;8.50;100.00
12349;BME280;5974;42.710;27.258;2023-01-27T04:29:21;99407.34;;;8.51;100.00
12349;BME280;5974;42.710;27.258;2023-01-27T04:31:49;99396.22;;;8.48;100.00
12349;BME280;5974;42.710;27.258;2023-01-27T04:34:16;99409.94;;;8.51;100.00
12349;BME280;5974;42.710;27.258;2023-01-27T04:36:45;99415.09;;;8.53;100.00
12349;BME280;5974;42.710;27.258;2023-01-27T04:39:13;99424.88;;;8.48;100.00
12349;BME280;5974;42.710;27.258;2023-01-27T04:41:40;99418.63;;;8.52;100.00
12349;BME280;5974;42.710;27.258;2023-01-27T04:44:08;99422.97;;;8.51;100.00
12349;BME280;5974;42.710;27.258;2023-01-27T04:46:35;99421.00;;;8.56;100.00
12349;BME280;5974;42.710;27.258;2023-01-27T04:49:03;99427.34;;;8.51;100.00
12349;BME280;5974;42.710;27.258;2023-01-27T04:51:30;99425.94;;;8.62;100.00
12349;BME280;5974;42.710;27.258;2023-01-27T04:53:59;99418.75;;;8.67;100.00
12349;BME280;5974;42.710;27.258;2023-01-27T04:56:29;99407.81;;;8.80;100.00
12349;BME280;5974;42.710;27.258;2023-01-27T04:58:57;99407.88;;;8.78;100.00
12349;BME280;5974;42.710;27.258;2023-01-27T05:01:24;99384.06;;;8.67;100.00
12349;BME280;5974;42.710;27.258;2023-01-27T05:03:52;99377.66;;;8.74;100.00
12349;BME280;5974;42.710;27.258;2023-01-27T05:06:19;99365.47;;;8.75;100.00
12349;BME280;5974;42.710;27.258;2023-01-27T05:08:46;99362.53;;;8.63;100.00
12349;BME280;5974;42.710;27.258;2023-01-27T05:11:15;99340.75;;;8.64;100.00
12349;BME280;5974;42.710;27.258;2023-01-27T05:13:42;99335.19;;;8.53;100.00
12349;BME280;5974;42.710;27.258;2023-01-27T05:16:11;99351.56;;;8.55;100.00
12349;BME280;5974;42.710;27.258;2023-01-27T05:18:39;99364.28;;;8.63;100.00
12349;BME280;5974;42.710;27.258;2023-01-27T05:21:08;99373.78;;;8.64;100.00
12349;BME280;5974;42.710;27.258;2023-01-27T05:23:37;99382.84;;;8.74;100.00
12349;BME280;5974;42.710;27.258;2023-01-27T05:26:06;99396.41;;;8.82;100.00
12349;BME280;5974;42.710;27.258;2023-01-27T05:28:35;99385.72;;;8.88;100.00
12349;BME280;5974;42.710;27.258;2023-01-27T05:31:04;99400.38;;;8.91;100.00
12349;BME280;5974;42.710;27.258;2023-01-27T05:33:30;99381.34;;;8.89;100.00
12349;BME280;5974;42.710;27.258;2023-01-27T05:35:59;99380.97;;;8.96;100.00
12349;BME280;5974;42.710;27.258;2023-01-27T05:38:26;99386.34;;;8.93;100.00
12349;BME280;5974;42.710;27.258;2023-01-27T05:40:55;99392.31;;;8.95;100.00
12349;BME280;5974;42.710;27.258;2023-01-27T05:43:22;99390.13;;;9.05;100.00
12349;BME280;5974;42.710;27.258;2023-01-27T05:45:51;99395.00;;;9.12;100.00
12349;BME280;5974;42.710;27.258;2023-01-27T05:48:17;99384.59;;;9.12;100.00
12349;BME280;5974;42.710;27.258;2023-01-27T05:50:53;99387.81;;;9.17;100.00
12349;BME280;5974;42.710;27.258;2023-01-27T05:53:20;99372.22;;;9.35;100.00
12349;BME280;5974;42.710;27.258;2023-01-27T05:55:48;99371.13;;;9.21;100.00
12349;BME280;5974;42.710;27.258;2023-01-27T05:58:15;99366.63;;;9.06;100.00
12349;BME280;5974;42.710;27.258;2023-01-27T06:00:42;99355.13;;;9.10;100.00
12349;BME280;5974;42.710;27.258;2023-01-27T06:03:10;99340.03;;;8.98;100.00
12349;BME280;5974;42.710;27.258;2023-01-27T06:05:37;99343.16;;;9.06;100.00
12349;BME280;5974;42.710;27.258;2023-01-27T06:08:04;99352.44;;;9.12;100.00
12349;BME280;5974;42.710;27.258;2023-01-27T06:10:31;99352.84;;;9.21;100.00
12349;BME280;5974;42.710;27.258;2023-01-27T06:13:02;99353.91;;;9.17;100.00
12349;BME280;5974;42.710;27.258;2023-01-27T06:15:29;99352.09;;;9.19;100.00
12349;BME280;5974;42.710;27.258;2023-01-27T06:17:56;99354.13;;;9.32;100.00
12349;BME280;5974;42.710;27.258;2023-01-27T06:20:24;99348.09;;;9.30;100.00
12349;BME280;5974;42.710;27.258;2023-01-27T06:22:51;99348.91;;;9.32;100.00
12349;BME280;5974;42.710;27.258;2023-01-27T06:25:18;99342.28;;;9.24;100.00
12349;BME280;5974;42.710;27.258;2023-01-27T06:27:45;99338.69;;;9.27;100.00
12349;BME280;5974;42.710;27.258;2023-01-27T06:30:13;99349.56;;;9.35;100.00
12349;BME280;5974;42.710;27.258;2023-01-27T06:32:39;99346.84;;;9.38;100.00
12349;BME280;5974;42.710;27.258;2023-01-27T06:35:07;99366.28;;;9.50;100.00
12349;BME280;5974;42.710;27.258;2023-01-27T06:37:35;99365.97;;;9.56;100.00
12349;BME280;5974;42.710;27.258;2023-01-27T06:40:02;99369.44;;;9.56;100.00
12349;BME280;5974;42.710;27.258;2023-01-27T06:42:29;99369.06;;;9.64;100.00
12349;BME280;5974;42.710;27.258;2023-01-27T06:44:56;99374.91;;;9.69;100.00
12349;BME280;5974;42.710;27.258;2023-01-27T06:47:25;99369.81;;;9.66;100.00
12349;BME280;5974;42.710;27.258;2023-01-27T06:49:51;99367.59;;;9.75;100.00
12349;BME280;5974;42.710;27.258;2023-01-27T06:52:18;99366.09;;;9.89;100.00
12349;BME280;5974;42.710;27.258;2023-01-27T06:54:46;99357.09;;;9.94;100.00
12349;BME280;5974;42.710;27.258;2023-01-27T06:57:13;99364.69;;;9.81;100.00
12349;BME280;5974;42.710;27.258;2023-01-27T06:59:40;99356.19;;;9.78;100.00
12349;BME280;5974;42.710;27.258;2023-01-27T07:02:09;99347.41;;;9.79;100.00
12349;BME280;5974;42.710;27.258;2023-01-27T07:04:37;99347.34;;;9.80;100.00
12349;BME280;5974;42.710;27.258;2023-01-27T07:07:04;99349.66;;;9.87;100.00
12349;BME280;5974;42.710;27.258;2023-01-27T07:09:31;99341.53;;;9.93;100.00
12349;BME280;5974;42.710;27.258;2023-01-27T07:11:59;99332.84;;;9.92;100.00
12349;BME280;5974;42.710;27.258;2023-01-27T07:14:26;99329.22;;;9.95;100.00
12349;BME280;5974;42.710;27.258;2023-01-27T07:16:52;99333.75;;;9.91;100.00
12349;BME280;5974;42.710;27.258;2023-01-27T07:19:19;99338.50;;;10.00;100.00
12349;BME280;5974;42.710;27.258;2023-01-27T07:21:46;99331.69;;;9.98;100.00
12349;BME280;5974;42.710;27.258;2023-01-27T07:24:13;99333.28;;;10.00;100.00
12349;BME280;5974;42.710;27.258;2023-01-27T07:26:40;99332.00;;;10.09;100.00
12349;BME280;5974;42.710;27.258;2023-01-27T07:29:09;99321.00;;;10.02;100.00
12349;BME280;5974;42.710;27.258;2023-01-27T07:31:36;99335.03;;;10.00;100.00
12349;BME280;5974;42.710;27.258;2023-01-27T07:34:03;99328.28;;;10.13;100.00
12349;BME280;5974;42.710;27.258;2023-01-27T07:36:30;99313.88;;;10.23;100.00
12349;BME280;5974;42.710;27.258;2023-01-27T07:38:56;99311.53;;;10.34;100.00
12349;BME280;5974;42.710;27.258;2023-01-27T07:41:23;99306.91;;;10.39;100.00
12349;BME280;5974;42.710;27.258;2023-01-27T07:43:50;99292.72;;;10.27;100.00
12349;BME280;5974;42.710;27.258;2023-01-27T07:46:19;99288.16;;;10.31;100.00
12349;BME280;5974;42.710;27.258;2023-01-27T07:48:45;99284.72;;;10.30;100.00
12349;BME280;5974;42.710;27.258;2023-01-27T07:51:13;99260.47;;;10.44;100.00
12349;BME280;5974;42.710;27.258;2023-01-27T07:53:40;99261.81;;;10.36;100.00
12349;BME280;5974;42.710;27.258;2023-01-27T07:56:07;99261.84;;;10.51;100.00
12349;BME280;5974;42.710;27.258;2023-01-27T07:58:36;99265.19;;;10.38;100.00
12349;BME280;5974;42.710;27.258;2023-01-27T08:01:04;99264.88;;;10.59;100.00
12349;BME280;5974;42.710;27.258;2023-01-27T08:03:53;99257.72;;;10.14;100.00
12349;BME280;5974;42.710;27.258;2023-01-27T08:06:22;99270.69;;;10.64;100.00
12349;BME280;5974;42.710;27.258;2023-01-27T08:08:49;99263.19;;;10.74;100.00
12349;BME280;5974;42.710;27.258;2023-01-27T08:11:16;99277.88;;;10.76;100.00
12349;BME280;5974;42.710;27.258;2023-01-27T08:13:43;99269.03;;;10.95;100.00
12349;BME280;5974;42.710;27.258;2023-01-27T08:16:11;99263.13;;;10.91;100.00
12349;BME280;5974;42.710;27.258;2023-01-27T08:18:40;99259.13;;;11.15;100.00
12349;BME280;5974;42.710;27.258;2023-01-27T08:21:09;99256.75;;;10.95;100.00
12349;BME280;5974;42.710;27.258;2023-01-27T08:23:37;99259.47;;;10.94;100.00
12349;BME280;5974;42.710;27.258;2023-01-27T08:26:05;99268.84;;;10.82;100.00
12349;BME280;5974;42.710;27.258;2023-01-27T08:28:35;99281.59;;;10.88;100.00
12349;BME280;5974;42.710;27.258;2023-01-27T08:31:04;99281.25;;;10.94;100.00
12349;BME280;5974;42.710;27.258;2023-01-27T08:33:31;99267.91;;;10.99;100.00
12349;BME280;5974;42.710;27.258;2023-01-27T08:36:04;99285.53;;;10.95;100.00
12349;BME280;5974;42.710;27.258;2023-01-27T08:38:31;99280.91;;;11.16;100.00
12349;BME280;5974;42.710;27.258;2023-01-27T08:41:03;99295.44;;;10.42;100.00
12349;BME280;5974;42.710;27.258;2023-01-27T08:43:30;99294.19;;;10.64;100.00
12349;BME280;5974;42.710;27.258;2023-01-27T08:45:57;99307.13;;;10.52;100.00
12349;BME280;5974;42.710;27.258;2023-01-27T08:48:25;99297.16;;;10.74;100.00
12349;BME280;5974;42.710;27.258;2023-01-27T08:50:52;99323.75;;;10.66;100.00
12349;BME280;5974;42.710;27.258;2023-01-27T08:53:20;99327.06;;;10.53;100.00
12349;BME280;5974;42.710;27.258;2023-01-27T08:55:47;99332.31;;;10.20;100.00
12349;BME280;5974;42.710;27.258;2023-01-27T08:58:14;99325.00;;;10.26;100.00
12349;BME280;5974;42.710;27.258;2023-01-27T09:00:41;99321.69;;;10.23;100.00
12349;BME280;5974;42.710;27.258;2023-01-27T09:03:08;99299.78;;;11.05;100.00
12349;BME280;5974;42.710;27.258;2023-01-27T09:05:35;99312.00;;;11.36;100.00
12349;BME280;5974;42.710;27.258;2023-01-27T09:08:02;99288.41;;;11.06;100.00
12349;BME280;5974;42.710;27.258;2023-01-27T09:10:31;99288.59;;;11.49;100.00
12349;BME280;5974;42.710;27.258;2023-01-27T09:13:02;99282.06;;;11.71;100.00
12349;BME280;5974;42.710;27.258;2023-01-27T09:15:28;99266.13;;;11.44;100.00
12349;BME280;5974;42.710;27.258;2023-01-27T09:17:56;99269.06;;;11.54;100.00
12349;BME280;5974;42.710;27.258;2023-01-27T09:20:22;99255.72;;;11.59;100.00
12349;BME280;5974;42.710;27.258;2023-01-27T09:22:49;99263.47;;;11.30;100.00
12349;BME280;5974;42.710;27.258;2023-01-27T09:25:16;99255.16;;;10.77;100.00
12349;BME280;5974;42.710;27.258;2023-01-27T09:27:44;99261.25;;;11.38;100.00
12349;BME280;5974;42.710;27.258;2023-01-27T09:30:14;99257.25;;;11.17;100.00
12349;BME280;5974;42.710;27.258;2023-01-27T09:32:41;99255.19;;;11.38;100.00
12349;BME280;5974;42.710;27.258;2023-01-27T09:35:08;99260.41;;;10.93;100.00
12349;BME280;5974;42.710;27.258;2023-01-27T09:37:40;99242.41;;;11.02;100.00
12349;BME280;5974;42.710;27.258;2023-01-27T09:40:16;99218.66;;;11.51;100.00
12349;BME280;5974;42.710;27.258;2023-01-27T09:43:05;99181.75;;;11.55;100.00
12349;BME280;5974;42.710;27.258;2023-01-27T09:48:32;99154.44;;;11.31;100.00
12349;BME280;5974;42.710;27.258;2023-01-27T09:51:09;99144.75;;;11.17;100.00
12349;BME280;5974;42.710;27.258;2023-01-27T09:53:54;99146.94;;;11.39;100.00
12349;BME280;5974;42.710;27.258;2023-01-27T09:56:39;99153.25;;;11.65;100.00
12349;BME280;5974;42.710;27.258;2023-01-27T09:59:27;99145.44;;;11.93;100.00
12349;BME280;5974;42.710;27.258;2023-01-27T10:02:06;99142.03;;;12.19;100.00
12349;BME280;5974;42.710;27.258;2023-01-27T10:05:01;99131.69;;;12.44;100.00
12349;BME280;5974;42.710;27.258;2023-01-27T10:07:53;99121.69;;;12.64;100.00
12349;BME280;5974;42.710;27.258;2023-01-27T10:10:34;99112.69;;;12.41;100.00
12349;BME280;5974;42.710;27.258;2023-01-27T10:13:12;99103.13;;;12.13;100.00
12349;BME280;5974;42.710;27.258;2023-01-27T10:15:53;99106.31;;;11.62;100.00
12349;BME280;5974;42.710;27.258;2023-01-27T10:18:44;99090.59;;;11.62;100.00
12349;BME280;5974;42.710;27.258;2023-01-27T10:21:24;99083.34;;;11.81;100.00
12349;BME280;5974;42.710;27.258;2023-01-27T10:23:59;99078.50;;;12.16;100.00
12349;BME280;5974;42.710;27.258;2023-01-27T10:26:32;99069.16;;;12.12;100.00
12349;BME280;5974;42.710;27.258;2023-01-27T10:29:06;99063.94;;;12.24;100.00
12349;BME280;5974;42.710;27.258;2023-01-27T10:31:36;99071.28;;;12.19;100.00
12349;BME280;5974;42.710;27.258;2023-01-27T10:34:17;99070.94;;;12.38;100.00
12349;BME280;5974;42.710;27.258;2023-01-27T10:36:55;99068.97;;;12.15;100.00
12349;BME280;5974;42.710;27.258;2023-01-27T10:39:32;99069.69;;;12.17;100.00
12349;BME280;5974;42.710;27.258;2023-01-27T10:42:08;99072.38;;;12.29;100.00
12349;BME280;5974;42.710;27.258;2023-01-27T10:44:53;99063.41;;;12.19;100.00
12349;BME280;5974;42.710;27.258;2023-01-27T10:47:32;99061.72;;;12.18;100.00
12349;BME280;5974;42.710;27.258;2023-01-27T10:50:06;99074.44;;;11.83;100.00
12349;BME280;5974;42.710;27.258;2023-01-27T10:52:39;99067.44;;;11.70;100.00
12349;BME280;5974;42.710;27.258;2023-01-27T10:55:15;99057.50;;;11.89;100.00
12349;BME280;5974;42.710;27.258;2023-01-27T10:57:49;99057.16;;;11.81;100.00
12349;BME280;5974;42.710;27.258;2023-01-27T11:00:27;99062.13;;;11.71;100.00
12349;BME280;5974;42.710;27.258;2023-01-27T11:03:01;99054.63;;;11.65;100.00
12349;BME280;5974;42.710;27.258;2023-01-27T11:05:35;99060.50;;;11.55;100.00
12349;BME280;5974;42.710;27.258;2023-01-27T11:08:06;99057.06;;;11.40;100.00
12349;BME280;5974;42.710;27.258;2023-01-27T11:10:40;99058.66;;;11.71;100.00
12349;BME280;5974;42.710;27.258;2023-01-27T11:13:30;99050.97;;;11.54;100.00
12349;BME280;5974;42.710;27.258;2023-01-27T11:15:59;99047.72;;;11.50;100.00
12349;BME280;5974;42.710;27.258;2023-01-27T11:18:29;99055.19;;;11.56;100.00
12349;BME280;5974;42.710;27.258;2023-01-27T11:20:59;99062.59;;;11.78;100.00
12349;BME280;5974;42.710;27.258;2023-01-27T11:23:30;99046.19;;;11.88;100.00
12349;BME280;5974;42.710;27.258;2023-01-27T11:26:01;99037.34;;;11.77;100.00
12349;BME280;5974;42.710;27.258;2023-01-27T11:28:35;99049.38;;;11.51;100.00
12349;BME280;5974;42.710;27.258;2023-01-27T11:31:12;99058.28;;;11.77;100.00
12349;BME280;5974;42.710;27.258;2023-01-27T11:33:53;99054.97;;;12.02;100.00
12349;BME280;5974;42.710;27.258;2023-01-27T11:36:23;99045.91;;;11.79;100.00
12349;BME280;5974;42.710;27.258;2023-01-27T11:38:50;99037.88;;;11.68;100.00
12349;BME280;5974;42.710;27.258;2023-01-27T11:41:17;99035.63;;;10.91;100.00
12349;BME280;5974;42.710;27.258;2023-01-27T11:43:44;99038.00;;;10.80;100.00
12349;BME280;5974;42.710;27.258;2023-01-27T11:46:15;99042.28;;;11.39;100.00
12349;BME280;5974;42.710;27.258;2023-01-27T11:48:47;99026.84;;;11.63;100.00
12349;BME280;5974;42.710;27.258;2023-01-27T11:51:18;99011.31;;;11.60;100.00
12349;BME280;5974;42.710;27.258;2023-01-27T11:53:49;98998.00;;;11.91;100.00
12349;BME280;5974;42.710;27.258;2023-01-27T11:56:18;99004.75;;;11.95;100.00
12349;BME280;5974;42.710;27.258;2023-01-27T11:58:51;98991.03;;;12.04;100.00
12349;BME280;5974;42.710;27.258;2023-01-27T12:01:24;99005.94;;;12.30;100.00
12349;BME280;5974;42.710;27.258;2023-01-27T12:04:00;98976.06;;;12.06;100.00
12349;BME280;5974;42.710;27.258;2023-01-27T12:06:34;98999.94;;;11.32;100.00
12349;BME280;5974;42.710;27.258;2023-01-27T12:09:01;98994.41;;;11.65;100.00
12349;BME280;5974;42.710;27.258;2023-01-27T12:11:30;98987.75;;;12.67;100.00
12349;BME280;5974;42.710;27.258;2023-01-27T12:13:59;98984.03;;;13.21;100.00
12349;BME280;5974;42.710;27.258;2023-01-27T12:16:39;98979.00;;;13.67;100.00
12349;BME280;5974;42.710;27.258;2023-01-27T12:19:22;98977.47;;;13.39;100.00
12349;BME280;5974;42.710;27.258;2023-01-27T12:21:54;98976.88;;;13.23;100.00
12349;BME280;5974;42.710;27.258;2023-01-27T12:24:26;98987.44;;;11.92;100.00
12349;BME280;5974;42.710;27.258;2023-01-27T12:26:54;98993.38;;;11.54;100.00
12349;BME280;5974;42.710;27.258;2023-01-27T12:29:25;99009.00;;;11.27;100.00
12349;BME280;5974;42.710;27.258;2023-01-27T12:31:56;99018.44;;;11.29;100.00
12349;BME280;5974;42.710;27.258;2023-01-27T12:34:28;99025.91;;;10.93;100.00
12349;BME280;5974;42.710;27.258;2023-01-27T12:36:57;99031.53;;;10.71;100.00
12349;BME280;5974;42.710;27.258;2023-01-27T12:39:32;99043.28;;;10.64;100.00
12349;BME280;5974;42.710;27.258;2023-01-27T12:42:00;99043.28;;;10.64;100.00
12349;BME280;5974;42.710;27.258;2023-01-27T12:44:39;99048.19;;;10.70;100.00
12349;BME280;5974;42.710;27.258;2023-01-27T12:47:19;99052.47;;;10.71;100.00
12349;BME280;5974;42.710;27.258;2023-01-27T12:49:50;99050.25;;;10.50;100.00
12349;BME280;5974;42.710;27.258;2023-01-27T12:52:18;99053.69;;;10.50;100.00
12349;BME280;5974;42.710;27.258;2023-01-27T12:54:46;99063.13;;;10.53;100.00
12349;BME280;5974;42.710;27.258;2023-01-27T12:57:18;99067.34;;;10.85;100.00
12349;BME280;5974;42.710;27.258;2023-01-27T12:59:49;99065.13;;;10.93;100.00
12349;BME280;5974;42.710;27.258;2023-01-27T13:02:18;99061.53;;;10.80;100.00
12349;BME280;5974;42.710;27.258;2023-01-27T13:04:51;99062.97;;;10.56;100.00
12349;BME280;5974;42.710;27.258;2023-01-27T13:07:23;99067.16;;;10.58;100.00
12349;BME280;5974;42.710;27.258;2023-01-27T13:09:53;99062.06;;;10.41;100.00
12349;BME280;5974;42.710;27.258;2023-01-27T13:12:23;99062.47;;;10.49;100.00
12349;BME280;5974;42.710;27.258;2023-01-27T13:14:53;99080.31;;;10.27;100.00